createdAt,value
2018-02-10T00:03:56.342Z,99297.86
2018-02-10T00:10:00.901Z,99300.13
2018-02-10T00:16:06.259Z,99297.58
2018-02-10T00:22:11.527Z,99294.67
2018-02-10T00:28:16.171Z,99295.57
2018-02-10T00:34:20.984Z,99291.34
2018-02-10T00:40:26.267Z,99302.03
2018-02-10T00:46:31.518Z,99296.35
2018-02-10T00:52:36.059Z,99302.06
2018-02-10T00:58:40.707Z,99304.64
2018-02-10T01:04:45.970Z,99308.61
2018-02-10T01:10:51.007Z,99316.87
2018-02-10T01:16:55.572Z,99311.88
2018-02-10T01:23:00.225Z,99309.98
2018-02-10T01:29:04.786Z,99318.91
2018-02-10T01:35:09.380Z,99314.79
2018-02-10T01:41:13.910Z,99319.45
2018-02-10T01:47:18.528Z,99315.55
2018-02-10T01:53:23.420Z,99323.58
2018-02-10T01:59:28.127Z,99325.91
2018-02-10T02:05:32.654Z,99323.91
2018-02-10T02:11:37.153Z,99329.31
2018-02-10T02:17:41.701Z,99327.84
2018-02-10T02:23:47.811Z,99330.97
2018-02-10T02:29:53.281Z,99319.45
2018-02-10T02:35:57.842Z,99317.20
2018-02-10T02:42:02.436Z,99320.88
2018-02-10T02:48:06.980Z,99316.11
2018-02-10T02:54:11.531Z,99311.89
2018-02-10T03:00:17.064Z,99313.70
2018-02-10T03:06:21.651Z,99312.56
2018-02-10T03:12:26.236Z,99315.37
2018-02-10T03:18:30.804Z,99304.74
2018-02-10T03:24:35.277Z,99307.13
2018-02-10T03:30:39.827Z,99312.30
2018-02-10T03:36:44.467Z,99297.86
2018-02-10T03:42:49.981Z,99306.16
2018-02-10T03:48:54.987Z,99307.34
2018-02-10T03:54:59.512Z,99306.31
2018-02-10T04:01:04.020Z,99312.06
2018-02-10T04:07:08.519Z,99317.16
2018-02-10T04:13:13.202Z,99319.66
2018-02-10T04:19:17.736Z,99321.00
2018-02-10T04:25:22.705Z,99322.80
2018-02-10T04:31:27.279Z,99323.39
2018-02-10T04:37:31.905Z,99323.39
2018-02-10T04:43:37.359Z,99331.95
2018-02-10T04:49:42.058Z,99334.62
2018-02-10T04:55:46.609Z,99333.12
2018-02-10T05:01:51.602Z,99332.94
2018-02-10T05:07:56.083Z,99331.15
2018-02-10T05:14:00.800Z,99330.11
2018-02-10T05:20:05.272Z,99327.52
2018-02-10T05:26:10.792Z,99330.63
2018-02-10T05:32:15.347Z,99327.52
2018-02-10T05:38:20.586Z,99344.31
2018-02-10T05:44:25.455Z,99339.45
2018-02-10T05:50:30.287Z,99329.27
2018-02-10T05:56:35.035Z,99340.00
2018-02-10T06:02:40.286Z,99337.09
2018-02-10T06:08:44.800Z,99348.30
2018-02-10T06:14:49.465Z,99349.62
2018-02-10T06:20:55.804Z,99355.38
2018-02-10T06:27:01.196Z,99354.68
2018-02-10T06:33:05.755Z,99350.94
2018-02-10T06:39:10.225Z,99357.77
2018-02-10T06:45:14.727Z,99360.92
2018-02-10T06:51:19.374Z,99360.33
2018-02-10T06:57:24.226Z,99359.17
2018-02-10T07:03:28.844Z,99365.61
2018-02-10T07:09:33.328Z,99369.19
2018-02-10T07:15:37.811Z,99362.53
2018-02-10T07:21:42.319Z,99360.25
2018-02-10T07:27:46.960Z,99365.00
2018-02-10T07:33:52.771Z,99365.34
2018-02-10T07:39:57.301Z,99354.38
2018-02-10T07:46:02.870Z,99356.20
2018-02-10T07:52:07.361Z,99364.62
2018-02-10T07:58:12.624Z,99367.70
2018-02-10T08:04:17.438Z,99361.75
2018-02-10T08:10:22.053Z,99371.66
2018-02-10T08:16:27.322Z,99387.77
2018-02-10T08:22:31.975Z,99388.86
2018-02-10T08:28:36.499Z,99388.56
2018-02-10T08:34:41.156Z,99388.67
2018-02-10T08:40:45.739Z,99393.84
2018-02-10T08:46:51.024Z,99390.93
2018-02-10T08:52:55.648Z,99384.13
2018-02-10T08:59:00.121Z,99383.82
2018-02-10T09:05:05.354Z,99383.94
2018-02-10T09:11:09.846Z,99393.55
2018-02-10T09:17:14.517Z,99386.33
2018-02-10T09:23:19.925Z,99383.84
2018-02-10T09:29:25.026Z,99388.41
2018-02-10T09:35:29.499Z,99389.30
2018-02-10T09:41:34.164Z,99390.23
2018-02-10T09:47:38.680Z,99390.69
2018-02-10T09:53:43.306Z,99397.70
2018-02-10T09:59:48.530Z,99391.26
2018-02-10T10:05:53.087Z,99392.50
2018-02-10T10:11:57.547Z,99393.11
2018-02-10T10:18:02.057Z,99382.77
2018-02-10T10:24:06.776Z,99381.15
2018-02-10T10:30:11.422Z,99388.27
2018-02-10T10:36:15.991Z,99383.17
2018-02-10T10:42:21.077Z,99380.06
2018-02-10T10:48:25.687Z,99376.97
2018-02-10T10:54:30.178Z,99375.28
2018-02-10T11:00:35.444Z,99364.53
2018-02-10T11:06:39.955Z,99359.10
2018-02-10T11:12:44.485Z,99362.11
2018-02-10T11:18:48.988Z,99358.90
2018-02-10T11:24:53.510Z,99354.81
2018-02-10T11:30:58.085Z,99348.56
2018-02-10T11:37:03.394Z,99339.89
2018-02-10T11:43:07.918Z,99344.78
2018-02-10T11:49:12.361Z,99338.73
2018-02-10T11:55:16.856Z,99338.45
2018-02-10T12:01:21.480Z,99341.86
2018-02-10T12:07:26.012Z,99333.52
2018-02-10T12:13:30.501Z,99329.60
2018-02-10T12:19:34.975Z,99331.06
2018-02-10T12:25:39.502Z,99330.41
2018-02-10T12:31:44.745Z,99329.86
2018-02-10T12:37:49.282Z,99323.45
2018-02-10T12:43:53.790Z,99321.02
2018-02-10T12:49:58.280Z,99322.05
2018-02-10T12:56:02.854Z,99323.09
2018-02-10T13:02:07.344Z,99311.41
2018-02-10T13:08:11.868Z,99320.53
2018-02-10T13:14:17.118Z,99321.97
2018-02-10T13:20:22.568Z,99313.82
2018-02-10T13:26:27.854Z,99309.44
2018-02-10T13:32:33.313Z,99305.98
2018-02-10T13:38:37.946Z,99300.63
2018-02-10T13:44:43.171Z,99300.31
2018-02-10T13:50:47.656Z,99295.55
2018-02-10T13:56:52.243Z,99283.56
2018-02-10T14:02:56.714Z,99284.19
2018-02-10T14:09:01.209Z,99278.69
2018-02-10T14:15:05.735Z,99273.44
2018-02-10T14:21:10.242Z,99270.06
2018-02-10T14:27:14.809Z,99261.85
2018-02-10T14:33:19.284Z,99251.54
2018-02-10T14:39:23.843Z,99244.99
2018-02-10T14:45:29.078Z,99239.02
2018-02-10T14:51:33.552Z,99235.44
2018-02-10T14:57:38.150Z,99239.45
2018-02-10T15:03:42.645Z,99236.17
2018-02-10T15:09:47.120Z,99232.03
2018-02-10T15:15:51.807Z,99232.56
2018-02-10T15:21:56.379Z,99236.19
2018-02-10T15:28:00.937Z,99236.79
2018-02-10T15:40:54.567Z,99235.00
2018-02-10T15:47:00.030Z,99223.98
2018-02-10T15:53:04.643Z,99222.50
2018-02-10T15:59:09.958Z,99225.06
2018-02-10T16:05:14.767Z,99213.97
2018-02-10T16:11:19.334Z,99220.69
2018-02-10T16:17:23.862Z,99224.80
2018-02-10T16:23:28.541Z,99226.75
2018-02-10T16:29:33.081Z,99226.28
2018-02-10T16:35:37.595Z,99231.45
2018-02-10T16:41:42.498Z,99239.97
2018-02-10T16:47:47.819Z,99224.65
2018-02-10T16:53:52.470Z,99227.77
2018-02-10T16:59:57.020Z,99227.20
2018-02-10T17:06:01.559Z,99229.50
2018-02-10T17:12:06.102Z,99228.26
2018-02-10T17:18:10.762Z,99224.63
2018-02-10T17:24:15.434Z,99217.76
2018-02-10T17:30:20.719Z,99217.97
2018-02-10T17:36:26.396Z,99217.13
2018-02-10T17:42:31.188Z,99203.24
2018-02-10T17:48:35.955Z,99195.00
2018-02-10T17:54:41.220Z,99186.00
2018-02-10T18:00:45.744Z,99192.98
2018-02-10T18:06:51.170Z,99194.51
2018-02-10T18:12:55.697Z,99190.25
2018-02-10T18:19:00.971Z,99188.10
2018-02-10T18:25:05.466Z,99185.84
2018-02-10T18:31:10.010Z,99179.77
2018-02-10T18:37:14.522Z,99177.48
2018-02-10T18:43:19.823Z,99174.09
2018-02-10T18:49:24.643Z,99178.78
2018-02-10T18:55:29.163Z,99176.76
2018-02-10T19:01:33.692Z,99168.25
2018-02-10T19:07:38.455Z,99167.22
2018-02-10T19:13:43.741Z,99151.93
2018-02-10T19:19:48.288Z,99159.58
2018-02-10T19:25:52.859Z,99154.16
2018-02-10T19:31:57.393Z,99158.72
2018-02-10T19:38:02.747Z,99155.20
2018-02-10T19:44:07.242Z,99153.92
2018-02-10T19:50:11.753Z,99134.77
2018-02-10T19:56:17.211Z,99127.77
2018-02-10T20:02:22.170Z,99133.88
2018-02-10T20:08:26.783Z,99129.86
2018-02-10T20:14:31.302Z,99133.55
2018-02-10T20:20:35.817Z,99133.41
2018-02-10T20:26:40.351Z,99129.98
2018-02-10T20:32:44.881Z,99132.03
2018-02-10T20:38:50.180Z,99124.77
2018-02-10T20:44:54.936Z,99118.78
2018-02-10T20:50:59.499Z,99114.38
2018-02-10T20:57:04.413Z,99109.35
2018-02-10T21:03:08.961Z,99106.53
2018-02-10T21:09:14.263Z,99099.97
2018-02-10T21:15:18.767Z,99087.41
2018-02-10T21:21:25.177Z,99070.90
2018-02-10T21:27:30.539Z,99065.53
2018-02-10T21:33:35.958Z,99052.36
2018-02-10T21:39:40.469Z,99041.13
2018-02-10T21:45:44.991Z,99039.39
2018-02-10T21:51:50.318Z,99034.56
2018-02-10T21:57:54.826Z,99029.89
2018-02-10T22:03:59.382Z,99026.88
2018-02-10T22:10:04.786Z,99011.89
2018-02-10T22:16:09.392Z,98995.61
2018-02-10T22:22:13.887Z,98996.69
2018-02-10T22:28:18.584Z,98995.98
2018-02-10T22:34:23.169Z,99003.16
2018-02-10T22:40:28.463Z,98994.52
2018-02-10T22:46:33.773Z,98986.05
2018-02-10T22:52:38.302Z,98980.76
2018-02-10T22:58:42.787Z,98971.13
2018-02-10T23:04:48.241Z,98970.23
2018-02-10T23:10:52.890Z,98962.95
2018-02-10T23:16:58.289Z,98950.06
2018-02-10T23:23:03.555Z,98938.91
2018-02-10T23:29:08.074Z,98928.38
2018-02-10T23:35:12.710Z,98918.25
2018-02-10T23:41:18.347Z,98902.63
2018-02-10T23:47:23.241Z,98890.05
2018-02-10T23:53:28.009Z,98872.66
2018-02-10T23:59:33.399Z,98868.23
